Terminal Aerodrome Forecast
Issued by NWS Sterling, VA

Current Version | Previous Version | Text Only | Print | Product List | Glossary Off
Versions: 1 2 3 4 5 6 7 8 9 10 11 12 13 14 15 16 17 18 19 20 21 22

000
FTUS41 KLWX 101502 AAA
TAFDCA
TAF AMD
KDCA 101502Z 1015/1118 23007KT P6SM BKN050
     FM101800 26012G22KT P6SM SCT050
     FM102100 26010G18KT P6SM SCT100
     FM110000 23005KT P6SM BKN100
     FM110800 23005KT P6SM BKN040=

USA.gov is the U.S. government's official web portal to all federal, state and local government web resources and services.